sensor_id;sensor_type;location;lat;lon;timestamp;temperature;humidity
48579;DHT22;34357;51.948;6.132;2022-12-29T00:02:18;10.60;90.50
48579;DHT22;34357;51.948;6.132;2022-12-29T00:04:44;10.60;90.50
48579;DHT22;34357;51.948;6.132;2022-12-29T00:07:10;10.60;90.60
48579;DHT22;34357;51.948;6.132;2022-12-29T00:09:36;10.60;90.60
48579;DHT22;34357;51.948;6.132;2022-12-29T00:12:03;10.60;90.50
48579;DHT22;34357;51.948;6.132;2022-12-29T00:14:29;10.50;90.70
48579;DHT22;34357;51.948;6.132;2022-12-29T00:17:14;10.50;90.70
48579;DHT22;34357;51.948;6.132;2022-12-29T00:19:40;10.60;90.60
48579;DHT22;34357;51.948;6.132;2022-12-29T00:22:24;10.60;90.60
48579;DHT22;34357;51.948;6.132;2022-12-29T00:25:11;10.50;90.60
48579;DHT22;34357;51.948;6.132;2022-12-29T00:27:56;10.60;90.60
48579;DHT22;34357;51.948;6.132;2022-12-29T00:30:41;10.60;90.60
48579;DHT22;34357;51.948;6.132;2022-12-29T00:33:29;10.60;90.50
48579;DHT22;34357;51.948;6.132;2022-12-29T00:39:14;10.70;90.50
48579;DHT22;34357;51.948;6.132;2022-12-29T00:42:07;10.60;90.70
48579;DHT22;34357;51.948;6.132;2022-12-29T00:44:51;10.60;91.10
48579;DHT22;34357;51.948;6.132;2022-12-29T00:47:17;10.60;91.30
48579;DHT22;34357;51.948;6.132;2022-12-29T00:49:43;10.60;91.20
48579;DHT22;34357;51.948;6.132;2022-12-29T00:52:11;10.60;90.90
48579;DHT22;34357;51.948;6.132;2022-12-29T00:54:38;10.60;90.90
48579;DHT22;34357;51.948;6.132;2022-12-29T00:57:06;10.70;90.70
48579;DHT22;34357;51.948;6.132;2022-12-29T00:59:32;10.60;90.60
48579;DHT22;34357;51.948;6.132;2022-12-29T01:01:57;10.50;90.80
48579;DHT22;34357;51.948;6.132;2022-12-29T01:04:25;10.50;90.90
48579;DHT22;34357;51.948;6.132;2022-12-29T01:06:52;10.50;90.80
48579;DHT22;34357;51.948;6.132;2022-12-29T01:09:19;10.50;90.60
48579;DHT22;34357;51.948;6.132;2022-12-29T01:12:04;10.50;90.50
48579;DHT22;34357;51.948;6.132;2022-12-29T01:14:30;10.50;90.30
48579;DHT22;34357;51.948;6.132;2022-12-29T01:16:57;10.50;90.10
48579;DHT22;34357;51.948;6.132;2022-12-29T01:19:23;10.50;90.20
48579;DHT22;34357;51.948;6.132;2022-12-29T01:21:49;10.40;90.80
48579;DHT22;34357;51.948;6.132;2022-12-29T01:24:16;10.30;91.10
48579;DHT22;34357;51.948;6.132;2022-12-29T01:26:42;10.30;91.10
48579;DHT22;34357;51.948;6.132;2022-12-29T01:29:08;10.30;91.20
48579;DHT22;34357;51.948;6.132;2022-12-29T01:31:34;10.20;91.40
48579;DHT22;34357;51.948;6.132;2022-12-29T01:34:00;10.20;91.50
48579;DHT22;34357;51.948;6.132;2022-12-29T01:36:26;10.20;91.60
48579;DHT22;34357;51.948;6.132;2022-12-29T01:38:52;10.20;91.70
48579;DHT22;34357;51.948;6.132;2022-12-29T01:41:20;10.20;91.80
48579;DHT22;34357;51.948;6.132;2022-12-29T01:43:49;10.10;92.00
48579;DHT22;34357;51.948;6.132;2022-12-29T01:46:36;10.10;92.10
48579;DHT22;34357;51.948;6.132;2022-12-29T01:49:05;10.10;92.40
48579;DHT22;34357;51.948;6.132;2022-12-29T01:51:38;10.10;92.70
48579;DHT22;34357;51.948;6.132;2022-12-29T01:54:07;10.10;92.90
48579;DHT22;34357;51.948;6.132;2022-12-29T01:56:36;10.20;93.10
48579;DHT22;34357;51.948;6.132;2022-12-29T01:59:06;10.20;93.20
48579;DHT22;34357;51.948;6.132;2022-12-29T02:01:33;10.30;93.20
48579;DHT22;34357;51.948;6.132;2022-12-29T02:04:00;10.40;93.00
48579;DHT22;34357;51.948;6.132;2022-12-29T02:06:33;10.40;92.80
48579;DHT22;34357;51.948;6.132;2022-12-29T02:09:01;10.50;92.60
48579;DHT22;34357;51.948;6.132;2022-12-29T02:11:28;10.50;92.60
48579;DHT22;34357;51.948;6.132;2022-12-29T02:13:56;10.60;92.40
48579;DHT22;34357;51.948;6.132;2022-12-29T02:29:30;10.80;91.10
48579;DHT22;34357;51.948;6.132;2022-12-29T02:32:12;10.80;90.70
48579;DHT22;34357;51.948;6.132;2022-12-29T02:37:23;10.80;90.30
48579;DHT22;34357;51.948;6.132;2022-12-29T02:40:12;10.80;90.10
48579;DHT22;34357;51.948;6.132;2022-12-29T02:42:50;10.90;89.90
48579;DHT22;34357;51.948;6.132;2022-12-29T02:45:26;10.80;89.80
48579;DHT22;34357;51.948;6.132;2022-12-29T02:48:05;10.90;89.40
48579;DHT22;34357;51.948;6.132;2022-12-29T02:50:36;10.90;89.10
48579;DHT22;34357;51.948;6.132;2022-12-29T02:53:09;10.90;88.90
48579;DHT22;34357;51.948;6.132;2022-12-29T02:55:36;10.90;88.50
48579;DHT22;34357;51.948;6.132;2022-12-29T02:58:20;11.00;88.40
48579;DHT22;34357;51.948;6.132;2022-12-29T03:03:47;11.10;87.90
48579;DHT22;34357;51.948;6.132;2022-12-29T03:11:50;11.00;87.80
48579;DHT22;34357;51.948;6.132;2022-12-29T03:14:39;11.00;87.80
48579;DHT22;34357;51.948;6.132;2022-12-29T03:17:40;11.10;87.20
48579;DHT22;34357;51.948;6.132;2022-12-29T03:20:18;11.10;87.10
48579;DHT22;34357;51.948;6.132;2022-12-29T03:22:49;11.10;87.00
48579;DHT22;34357;51.948;6.132;2022-12-29T03:25:28;11.10;86.90
48579;DHT22;34357;51.948;6.132;2022-12-29T03:28:01;11.10;87.00
48579;DHT22;34357;51.948;6.132;2022-12-29T03:30:29;11.00;87.10
48579;DHT22;34357;51.948;6.132;2022-12-29T03:33:04;11.00;86.90
48579;DHT22;34357;51.948;6.132;2022-12-29T03:35:35;11.10;86.80
48579;DHT22;34357;51.948;6.132;2022-12-29T03:40:38;11.00;86.80
48579;DHT22;34357;51.948;6.132;2022-12-29T03:43:05;11.00;86.70
48579;DHT22;34357;51.948;6.132;2022-12-29T03:45:33;11.10;86.70
48579;DHT22;34357;51.948;6.132;2022-12-29T03:47:59;11.00;86.80
48579;DHT22;34357;51.948;6.132;2022-12-29T03:50:26;10.90;87.10
48579;DHT22;34357;51.948;6.132;2022-12-29T03:52:52;10.90;87.30
48579;DHT22;34357;51.948;6.132;2022-12-29T03:55:17;11.00;87.00
48579;DHT22;34357;51.948;6.132;2022-12-29T03:57:43;11.00;87.20
48579;DHT22;34357;51.948;6.132;2022-12-29T04:00:14;11.00;87.30
48579;DHT22;34357;51.948;6.132;2022-12-29T04:02:47;11.00;87.10
48579;DHT22;34357;51.948;6.132;2022-12-29T04:05:18;10.90;87.30
48579;DHT22;34357;51.948;6.132;2022-12-29T04:07:44;10.90;87.50
48579;DHT22;34357;51.948;6.132;2022-12-29T04:10:10;11.00;87.20
48579;DHT22;34357;51.948;6.132;2022-12-29T04:12:36;11.00;86.70
48579;DHT22;34357;51.948;6.132;2022-12-29T04:15:02;11.00;86.60
48579;DHT22;34357;51.948;6.132;2022-12-29T04:17:29;11.00;86.70
48579;DHT22;34357;51.948;6.132;2022-12-29T04:19:55;11.00;86.60
48579;DHT22;34357;51.948;6.132;2022-12-29T04:22:40;10.90;86.90
48579;DHT22;34357;51.948;6.132;2022-12-29T04:25:07;10.90;86.90
48579;DHT22;34357;51.948;6.132;2022-12-29T04:27:33;10.90;87.00
48579;DHT22;34357;51.948;6.132;2022-12-29T04:30:14;11.00;86.30
48579;DHT22;34357;51.948;6.132;2022-12-29T04:32:52;11.00;86.30
48579;DHT22;34357;51.948;6.132;2022-12-29T04:35:18;11.00;86.20
48579;DHT22;34357;51.948;6.132;2022-12-29T04:37:44;11.00;86.50
48579;DHT22;34357;51.948;6.132;2022-12-29T04:40:10;10.90;86.60
48579;DHT22;34357;51.948;6.132;2022-12-29T04:42:36;10.90;86.70
48579;DHT22;34357;51.948;6.132;2022-12-29T04:45:02;10.90;86.70
48579;DHT22;34357;51.948;6.132;2022-12-29T04:47:46;11.00;86.70
48579;DHT22;34357;51.948;6.132;2022-12-29T04:50:35;10.90;86.80
48579;DHT22;34357;51.948;6.132;2022-12-29T04:53:13;10.80;87.80
48579;DHT22;34357;51.948;6.132;2022-12-29T04:55:39;10.80;88.80
48579;DHT22;34357;51.948;6.132;2022-12-29T04:58:05;10.60;89.40
48579;DHT22;34357;51.948;6.132;2022-12-29T05:00:33;10.50;89.90
48579;DHT22;34357;51.948;6.132;2022-12-29T05:03:00;10.40;90.50
48579;DHT22;34357;51.948;6.132;2022-12-29T05:05:26;10.40;90.70
48579;DHT22;34357;51.948;6.132;2022-12-29T05:07:52;10.30;90.80
48579;DHT22;34357;51.948;6.132;2022-12-29T05:10:18;10.30;90.70
48579;DHT22;34357;51.948;6.132;2022-12-29T05:12:44;10.30;90.70
48579;DHT22;34357;51.948;6.132;2022-12-29T05:15:12;10.40;90.30
48579;DHT22;34357;51.948;6.132;2022-12-29T05:17:38;10.40;90.00
48579;DHT22;34357;51.948;6.132;2022-12-29T05:20:06;10.30;89.90
48579;DHT22;34357;51.948;6.132;2022-12-29T05:22:33;10.30;89.90
48579;DHT22;34357;51.948;6.132;2022-12-29T05:24:59;10.30;90.10
48579;DHT22;34357;51.948;6.132;2022-12-29T05:27:24;10.20;90.20
48579;DHT22;34357;51.948;6.132;2022-12-29T05:30:17;10.20;90.50
48579;DHT22;34357;51.948;6.132;2022-12-29T05:32:42;10.20;90.40
48579;DHT22;34357;51.948;6.132;2022-12-29T05:35:08;10.10;90.70
48579;DHT22;34357;51.948;6.132;2022-12-29T05:37:34;10.00;91.10
48579;DHT22;34357;51.948;6.132;2022-12-29T05:40:00;10.00;91.40
48579;DHT22;34357;51.948;6.132;2022-12-29T05:42:26;10.00;91.50
48579;DHT22;34357;51.948;6.132;2022-12-29T05:45:08;9.90;91.60
48579;DHT22;34357;51.948;6.132;2022-12-29T05:47:54;9.90;91.80
48579;DHT22;34357;51.948;6.132;2022-12-29T05:50:28;9.70;91.90
48579;DHT22;34357;51.948;6.132;2022-12-29T05:53:15;9.70;91.80
48579;DHT22;34357;51.948;6.132;2022-12-29T05:55:43;9.60;91.60
48579;DHT22;34357;51.948;6.132;2022-12-29T05:58:09;9.60;91.60
48579;DHT22;34357;51.948;6.132;2022-12-29T06:00:35;9.60;91.10
48579;DHT22;34357;51.948;6.132;2022-12-29T06:03:01;9.60;90.70
48579;DHT22;34357;51.948;6.132;2022-12-29T06:05:27;9.70;90.10
48579;DHT22;34357;51.948;6.132;2022-12-29T06:07:53;9.70;89.50
48579;DHT22;34357;51.948;6.132;2022-12-29T06:10:18;9.70;89.40
48579;DHT22;34357;51.948;6.132;2022-12-29T06:12:49;9.70;89.00
48579;DHT22;34357;51.948;6.132;2022-12-29T06:15:15;9.80;88.20
48579;DHT22;34357;51.948;6.132;2022-12-29T06:17:42;9.80;88.10
48579;DHT22;34357;51.948;6.132;2022-12-29T06:20:09;9.80;87.60
48579;DHT22;34357;51.948;6.132;2022-12-29T06:22:35;9.90;86.80
48579;DHT22;34357;51.948;6.132;2022-12-29T06:25:02;9.80;87.00
48579;DHT22;34357;51.948;6.132;2022-12-29T06:27:28;9.80;87.00
48579;DHT22;34357;51.948;6.132;2022-12-29T06:29:54;9.70;87.20
48579;DHT22;34357;51.948;6.132;2022-12-29T06:32:19;9.60;87.10
48579;DHT22;34357;51.948;6.132;2022-12-29T06:34:50;9.60;86.90
48579;DHT22;34357;51.948;6.132;2022-12-29T06:37:15;9.60;86.90
48579;DHT22;34357;51.948;6.132;2022-12-29T06:39:41;9.50;86.90
48579;DHT22;34357;51.948;6.132;2022-12-29T06:42:10;9.50;86.40
48579;DHT22;34357;51.948;6.132;2022-12-29T06:44:38;9.50;86.60
48579;DHT22;34357;51.948;6.132;2022-12-29T06:47:09;9.60;85.60
48579;DHT22;34357;51.948;6.132;2022-12-29T06:49:34;9.60;85.50
48579;DHT22;34357;51.948;6.132;2022-12-29T06:52:00;9.60;86.00
48579;DHT22;34357;51.948;6.132;2022-12-29T06:54:32;9.60;85.90
48579;DHT22;34357;51.948;6.132;2022-12-29T06:56:58;9.80;85.10
48579;DHT22;34357;51.948;6.132;2022-12-29T06:59:24;9.80;85.00
48579;DHT22;34357;51.948;6.132;2022-12-29T07:01:50;9.90;84.40
48579;DHT22;34357;51.948;6.132;2022-12-29T07:04:16;9.90;84.70
48579;DHT22;34357;51.948;6.132;2022-12-29T07:06:42;9.90;83.70
48579;DHT22;34357;51.948;6.132;2022-12-29T07:09:08;9.90;83.90
48579;DHT22;34357;51.948;6.132;2022-12-29T07:11:34;9.90;83.50
48579;DHT22;34357;51.948;6.132;2022-12-29T07:14:00;10.00;83.20
48579;DHT22;34357;51.948;6.132;2022-12-29T07:16:26;9.90;83.30
48579;DHT22;34357;51.948;6.132;2022-12-29T07:18:52;9.90;84.00
48579;DHT22;34357;51.948;6.132;2022-12-29T07:21:18;9.90;83.60
48579;DHT22;34357;51.948;6.132;2022-12-29T07:23:44;9.90;83.50
48579;DHT22;34357;51.948;6.132;2022-12-29T07:26:13;10.00;83.10
48579;DHT22;34357;51.948;6.132;2022-12-29T07:28:39;10.00;82.90
48579;DHT22;34357;51.948;6.132;2022-12-29T07:31:17;10.00;83.00
48579;DHT22;34357;51.948;6.132;2022-12-29T07:33:44;10.10;82.90
48579;DHT22;34357;51.948;6.132;2022-12-29T07:36:10;10.10;82.70
48579;DHT22;34357;51.948;6.132;2022-12-29T07:38:36;10.00;82.50
48579;DHT22;34357;51.948;6.132;2022-12-29T07:41:02;10.10;82.70
48579;DHT22;34357;51.948;6.132;2022-12-29T07:43:28;10.20;81.80
48579;DHT22;34357;51.948;6.132;2022-12-29T07:46:13;10.10;82.00
48579;DHT22;34357;51.948;6.132;2022-12-29T07:48:39;10.20;82.40
48579;DHT22;34357;51.948;6.132;2022-12-29T07:51:05;10.20;82.10
48579;DHT22;34357;51.948;6.132;2022-12-29T07:53:32;10.20;81.40
48579;DHT22;34357;51.948;6.132;2022-12-29T07:55:57;10.30;81.70
48579;DHT22;34357;51.948;6.132;2022-12-29T07:58:23;10.30;81.30
48579;DHT22;34357;51.948;6.132;2022-12-29T08:00:56;10.40;80.80
48579;DHT22;34357;51.948;6.132;2022-12-29T08:03:22;10.40;80.40
48579;DHT22;34357;51.948;6.132;2022-12-29T08:05:49;10.40;81.10
48579;DHT22;34357;51.948;6.132;2022-12-29T08:08:14;10.40;80.30
48579;DHT22;34357;51.948;6.132;2022-12-29T08:10:40;10.40;80.60
48579;DHT22;34357;51.948;6.132;2022-12-29T08:13:06;10.40;79.90
48579;DHT22;34357;51.948;6.132;2022-12-29T08:15:32;10.40;79.50
48579;DHT22;34357;51.948;6.132;2022-12-29T08:17:57;10.50;79.00
48579;DHT22;34357;51.948;6.132;2022-12-29T08:20:23;10.40;79.30
48579;DHT22;34357;51.948;6.132;2022-12-29T08:22:50;10.40;78.70
48579;DHT22;34357;51.948;6.132;2022-12-29T08:25:16;10.40;78.40
48579;DHT22;34357;51.948;6.132;2022-12-29T08:27:41;10.30;79.00
48579;DHT22;34357;51.948;6.132;2022-12-29T08:30:08;10.30;78.00
48579;DHT22;34357;51.948;6.132;2022-12-29T08:32:34;10.40;77.70
48579;DHT22;34357;51.948;6.132;2022-12-29T08:34:59;10.50;77.40
48579;DHT22;34357;51.948;6.132;2022-12-29T08:37:26;10.40;78.00
48579;DHT22;34357;51.948;6.132;2022-12-29T08:39:54;10.40;77.60
48579;DHT22;34357;51.948;6.132;2022-12-29T08:42:20;10.40;77.60
48579;DHT22;34357;51.948;6.132;2022-12-29T08:44:46;10.40;78.30
48579;DHT22;34357;51.948;6.132;2022-12-29T08:47:11;10.40;78.10
48579;DHT22;34357;51.948;6.132;2022-12-29T08:49:37;10.40;77.80
48579;DHT22;34357;51.948;6.132;2022-12-29T08:52:03;10.40;78.50
48579;DHT22;34357;51.948;6.132;2022-12-29T08:54:29;10.40;78.60
48579;DHT22;34357;51.948;6.132;2022-12-29T08:56:55;10.40;78.70
48579;DHT22;34357;51.948;6.132;2022-12-29T08:59:26;10.50;78.80
48579;DHT22;34357;51.948;6.132;2022-12-29T09:01:51;10.40;79.10
48579;DHT22;34357;51.948;6.132;2022-12-29T09:04:17;10.50;78.80
48579;DHT22;34357;51.948;6.132;2022-12-29T09:06:44;10.50;79.40
48579;DHT22;34357;51.948;6.132;2022-12-29T09:09:10;10.60;79.20
48579;DHT22;34357;51.948;6.132;2022-12-29T09:11:36;10.50;79.50
48579;DHT22;34357;51.948;6.132;2022-12-29T09:14:02;10.50;79.10
48579;DHT22;34357;51.948;6.132;2022-12-29T09:16:28;10.50;79.30
48579;DHT22;34357;51.948;6.132;2022-12-29T09:18:54;10.40;79.20
48579;DHT22;34357;51.948;6.132;2022-12-29T09:21:19;10.50;78.40
48579;DHT22;34357;51.948;6.132;2022-12-29T09:23:47;10.50;78.10
48579;DHT22;34357;51.948;6.132;2022-12-29T09:26:13;10.60;78.60
48579;DHT22;34357;51.948;6.132;2022-12-29T09:28:39;10.60;78.90
48579;DHT22;34357;51.948;6.132;2022-12-29T09:31:05;10.40;80.10
48579;DHT22;34357;51.948;6.132;2022-12-29T09:33:32;10.30;81.50
48579;DHT22;34357;51.948;6.132;2022-12-29T09:36:01;10.00;83.20
48579;DHT22;34357;51.948;6.132;2022-12-29T09:38:27;9.90;83.20
48579;DHT22;34357;51.948;6.132;2022-12-29T09:41:13;9.90;83.10
48579;DHT22;34357;51.948;6.132;2022-12-29T09:44:03;9.90;83.60
48579;DHT22;34357;51.948;6.132;2022-12-29T09:46:40;9.90;83.50
48579;DHT22;34357;51.948;6.132;2022-12-29T09:49:24;10.00;82.70
48579;DHT22;34357;51.948;6.132;2022-12-29T09:51:53;10.10;82.40
48579;DHT22;34357;51.948;6.132;2022-12-29T09:54:32;10.20;82.00
48579;DHT22;34357;51.948;6.132;2022-12-29T09:57:01;10.20;81.50
48579;DHT22;34357;51.948;6.132;2022-12-29T09:59:47;10.30;80.90
48579;DHT22;34357;51.948;6.132;2022-12-29T10:03:09;10.30;81.80
48579;DHT22;34357;51.948;6.132;2022-12-29T10:10:38;10.30;82.00
48579;DHT22;34357;51.948;6.132;2022-12-29T10:13:34;10.20;82.20
48579;DHT22;34357;51.948;6.132;2022-12-29T10:16:11;10.20;82.40
48579;DHT22;34357;51.948;6.132;2022-12-29T10:21:21;10.20;82.60
48579;DHT22;34357;51.948;6.132;2022-12-29T10:23:52;10.10;83.10
48579;DHT22;34357;51.948;6.132;2022-12-29T10:26:27;10.10;83.20
48579;DHT22;34357;51.948;6.132;2022-12-29T10:29:02;10.10;84.00
48579;DHT22;34357;51.948;6.132;2022-12-29T10:31:38;9.90;84.90
48579;DHT22;34357;51.948;6.132;2022-12-29T10:34:21;9.90;84.80
48579;DHT22;34357;51.948;6.132;2022-12-29T10:36:50;9.90;84.70
48579;DHT22;34357;51.948;6.132;2022-12-29T10:39:30;9.90;84.50
48579;DHT22;34357;51.948;6.132;2022-12-29T10:44:38;9.70;86.70
48579;DHT22;34357;51.948;6.132;2022-12-29T10:47:08;9.60;87.40
48579;DHT22;34357;51.948;6.132;2022-12-29T10:49:42;9.60;87.70
48579;DHT22;34357;51.948;6.132;2022-12-29T10:52:09;9.50;87.90
48579;DHT22;34357;51.948;6.132;2022-12-29T10:55:02;9.60;87.60
48579;DHT22;34357;51.948;6.132;2022-12-29T10:57:40;9.70;87.10
48579;DHT22;34357;51.948;6.132;2022-12-29T11:00:17;9.70;87.50
48579;DHT22;34357;51.948;6.132;2022-12-29T11:06:06;9.70;87.60
48579;DHT22;34357;51.948;6.132;2022-12-29T11:08:38;9.70;87.40
48579;DHT22;34357;51.948;6.132;2022-12-29T11:11:09;9.70;87.30
48579;DHT22;34357;51.948;6.132;2022-12-29T11:13:48;9.70;87.40
48579;DHT22;34357;51.948;6.132;2022-12-29T11:16:14;9.80;87.10
48579;DHT22;34357;51.948;6.132;2022-12-29T11:18:40;9.90;87.00
48579;DHT22;34357;51.948;6.132;2022-12-29T11:21:46;9.90;87.00
48579;DHT22;34357;51.948;6.132;2022-12-29T11:24:43;10.00;87.10
48579;DHT22;34357;51.948;6.132;2022-12-29T11:27:15;10.10;86.20
48579;DHT22;34357;51.948;6.132;2022-12-29T11:29:42;10.20;86.10
48579;DHT22;34357;51.948;6.132;2022-12-29T11:32:20;10.20;85.20
48579;DHT22;34357;51.948;6.132;2022-12-29T11:34:49;10.20;85.30
48579;DHT22;34357;51.948;6.132;2022-12-29T11:37:18;10.20;85.40
48579;DHT22;34357;51.948;6.132;2022-12-29T11:40:05;10.10;85.90
48579;DHT22;34357;51.948;6.132;2022-12-29T11:42:43;10.00;86.30
48579;DHT22;34357;51.948;6.132;2022-12-29T11:45:19;10.10;86.60
48579;DHT22;34357;51.948;6.132;2022-12-29T11:47:50;10.10;86.00
48579;DHT22;34357;51.948;6.132;2022-12-29T11:50:20;10.20;86.00
48579;DHT22;34357;51.948;6.132;2022-12-29T11:52:48;10.20;85.60
48579;DHT22;34357;51.948;6.132;2022-12-29T11:55:32;10.20;85.50
48579;DHT22;34357;51.948;6.132;2022-12-29T11:58:01;10.20;85.20
48579;DHT22;34357;51.948;6.132;2022-12-29T12:00:30;10.30;85.10
48579;DHT22;34357;51.948;6.132;2022-12-29T12:03:22;10.30;84.60
48579;DHT22;34357;51.948;6.132;2022-12-29T12:05:49;10.30;85.00
48579;DHT22;34357;51.948;6.132;2022-12-29T12:14:01;10.40;83.40
48579;DHT22;34357;51.948;6.132;2022-12-29T12:16:46;10.30;83.50
48579;DHT22;34357;51.948;6.132;2022-12-29T12:19:32;10.30;83.40
48579;DHT22;34357;51.948;6.132;2022-12-29T12:25:23;10.40;83.10
48579;DHT22;34357;51.948;6.132;2022-12-29T12:27:56;10.30;83.30
48579;DHT22;34357;51.948;6.132;2022-12-29T12:30:24;10.30;83.30
48579;DHT22;34357;51.948;6.132;2022-12-29T12:32:55;10.30;83.50
48579;DHT22;34357;51.948;6.132;2022-12-29T12:41:00;10.40;82.70
48579;DHT22;34357;51.948;6.132;2022-12-29T12:48:37;10.40;82.70
48579;DHT22;34357;51.948;6.132;2022-12-29T12:59:58;10.30;82.00
48579;DHT22;34357;51.948;6.132;2022-12-29T13:08:34;10.40;82.50
48579;DHT22;34357;51.948;6.132;2022-12-29T13:20:31;10.40;82.80
48579;DHT22;34357;51.948;6.132;2022-12-29T13:23:12;10.30;82.70
48579;DHT22;34357;51.948;6.132;2022-12-29T13:28:31;10.40;82.80
48579;DHT22;34357;51.948;6.132;2022-12-29T13:33:49;10.40;82.20
48579;DHT22;34357;51.948;6.132;2022-12-29T13:36:29;10.40;82.00
48579;DHT22;34357;51.948;6.132;2022-12-29T13:39:30;10.40;82.20
48579;DHT22;34357;51.948;6.132;2022-12-29T13:41:59;10.40;82.30
48579;DHT22;34357;51.948;6.132;2022-12-29T13:44:30;10.40;81.80
48579;DHT22;34357;51.948;6.132;2022-12-29T13:47:00;10.40;81.50
48579;DHT22;34357;51.948;6.132;2022-12-29T13:49:27;10.50;81.10
48579;DHT22;34357;51.948;6.132;2022-12-29T13:52:09;10.40;81.00
48579;DHT22;34357;51.948;6.132;2022-12-29T13:54:54;10.50;81.10
48579;DHT22;34357;51.948;6.132;2022-12-29T13:57:56;10.40;80.90
48579;DHT22;34357;51.948;6.132;2022-12-29T14:00:28;10.50;81.60
48579;DHT22;34357;51.948;6.132;2022-12-29T14:06:27;10.40;80.20
48579;DHT22;34357;51.948;6.132;2022-12-29T14:08:58;10.40;80.50
48579;DHT22;34357;51.948;6.132;2022-12-29T14:11:37;10.40;81.00
48579;DHT22;34357;51.948;6.132;2022-12-29T14:14:22;10.30;81.20
48579;DHT22;34357;51.948;6.132;2022-12-29T14:16:49;10.30;81.10
48579;DHT22;34357;51.948;6.132;2022-12-29T14:19:16;10.30;80.80
48579;DHT22;34357;51.948;6.132;2022-12-29T14:22:01;10.30;81.10
48579;DHT22;34357;51.948;6.132;2022-12-29T14:24:42;10.30;81.60
48579;DHT22;34357;51.948;6.132;2022-12-29T14:34:57;9.80;82.80
48579;DHT22;34357;51.948;6.132;2022-12-29T14:37:36;9.80;82.90
48579;DHT22;34357;51.948;6.132;2022-12-29T14:40:24;9.70;82.70
48579;DHT22;34357;51.948;6.132;2022-12-29T14:42:54;9.60;82.80
48579;DHT22;34357;51.948;6.132;2022-12-29T14:47:48;9.50;83.30
48579;DHT22;34357;51.948;6.132;2022-12-29T14:50:36;9.40;84.70
48579;DHT22;34357;51.948;6.132;2022-12-29T14:53:04;9.20;86.80
48579;DHT22;34357;51.948;6.132;2022-12-29T14:55:47;9.00;88.00
48579;DHT22;34357;51.948;6.132;2022-12-29T14:58:35;9.00;88.30
48579;DHT22;34357;51.948;6.132;2022-12-29T15:01:05;9.00;88.90
48579;DHT22;34357;51.948;6.132;2022-12-29T15:03:49;8.90;89.10
48579;DHT22;34357;51.948;6.132;2022-12-29T15:06:16;8.90;89.60
48579;DHT22;34357;51.948;6.132;2022-12-29T15:15:10;8.90;89.60
48579;DHT22;34357;51.948;6.132;2022-12-29T15:17:29;8.90;89.60
48579;DHT22;34357;51.948;6.132;2022-12-29T15:19:56;8.90;89.30
48579;DHT22;34357;51.948;6.132;2022-12-29T15:22:23;9.00;89.30
48579;DHT22;34357;51.948;6.132;2022-12-29T15:24:51;9.10;88.90
48579;DHT22;34357;51.948;6.132;2022-12-29T15:27:23;9.10;88.90
48579;DHT22;34357;51.948;6.132;2022-12-29T15:29:56;9.10;89.40
48579;DHT22;34357;51.948;6.132;2022-12-29T15:32:27;9.00;89.60
48579;DHT22;34357;51.948;6.132;2022-12-29T15:34:54;9.00;89.90
48579;DHT22;34357;51.948;6.132;2022-12-29T15:37:31;8.90;90.10
48579;DHT22;34357;51.948;6.132;2022-12-29T15:39:57;8.90;89.90
48579;DHT22;34357;51.948;6.132;2022-12-29T15:45:06;8.90;89.70
48579;DHT22;34357;51.948;6.132;2022-12-29T15:47:34;8.90;89.60
48579;DHT22;34357;51.948;6.132;2022-12-29T15:50:04;8.90;89.60
48579;DHT22;34357;51.948;6.132;2022-12-29T15:52:32;9.00;89.50
48579;DHT22;34357;51.948;6.132;2022-12-29T15:54:58;8.90;89.50
48579;DHT22;34357;51.948;6.132;2022-12-29T15:57:28;8.90;89.40
48579;DHT22;34357;51.948;6.132;2022-12-29T15:59:55;8.90;89.00
48579;DHT22;34357;51.948;6.132;2022-12-29T16:02:24;8.90;88.80
48579;DHT22;34357;51.948;6.132;2022-12-29T16:04:51;8.90;88.80
48579;DHT22;34357;51.948;6.132;2022-12-29T16:07:35;8.90;88.80
48579;DHT22;34357;51.948;6.132;2022-12-29T16:10:02;8.90;88.50
48579;DHT22;34357;51.948;6.132;2022-12-29T16:12:35;8.90;88.10
48579;DHT22;34357;51.948;6.132;2022-12-29T16:15:03;8.90;87.80
48579;DHT22;34357;51.948;6.132;2022-12-29T16:17:33;8.90;88.00
48579;DHT22;34357;51.948;6.132;2022-12-29T16:20:20;8.90;88.00
48579;DHT22;34357;51.948;6.132;2022-12-29T16:22:53;8.90;87.70
48579;DHT22;34357;51.948;6.132;2022-12-29T16:25:33;8.90;87.60
48579;DHT22;34357;51.948;6.132;2022-12-29T16:28:01;9.00;87.60
48579;DHT22;34357;51.948;6.132;2022-12-29T16:30:31;9.00;87.20
48579;DHT22;34357;51.948;6.132;2022-12-29T16:33:00;9.00;87.40
48579;DHT22;34357;51.948;6.132;2022-12-29T16:38:16;9.00;87.00
48579;DHT22;34357;51.948;6.132;2022-12-29T16:41:01;9.00;86.90
48579;DHT22;34357;51.948;6.132;2022-12-29T16:43:31;8.90;86.70
48579;DHT22;34357;51.948;6.132;2022-12-29T16:48:28;9.00;85.80
48579;DHT22;34357;51.948;6.132;2022-12-29T16:51:09;9.00;85.70
48579;DHT22;34357;51.948;6.132;2022-12-29T16:53:39;8.90;85.70
48579;DHT22;34357;51.948;6.132;2022-12-29T16:56:14;8.90;85.10
48579;DHT22;34357;51.948;6.132;2022-12-29T16:58:40;8.90;84.90
48579;DHT22;34357;51.948;6.132;2022-12-29T17:01:07;8.90;84.90
48579;DHT22;34357;51.948;6.132;2022-12-29T17:03:43;8.80;85.10
48579;DHT22;34357;51.948;6.132;2022-12-29T17:06:15;8.80;85.10
48579;DHT22;34357;51.948;6.132;2022-12-29T17:08:43;8.70;85.20
48579;DHT22;34357;51.948;6.132;2022-12-29T17:11:32;8.70;85.20
48579;DHT22;34357;51.948;6.132;2022-12-29T17:17:02;8.60;85.30
48579;DHT22;34357;51.948;6.132;2022-12-29T17:19:30;8.60;85.00
48579;DHT22;34357;51.948;6.132;2022-12-29T17:21:57;8.60;84.90
48579;DHT22;34357;51.948;6.132;2022-12-29T17:24:23;8.60;84.90
48579;DHT22;34357;51.948;6.132;2022-12-29T17:26:52;8.60;84.90
48579;DHT22;34357;51.948;6.132;2022-12-29T17:29:37;8.50;85.00
48579;DHT22;34357;51.948;6.132;2022-12-29T17:32:06;8.50;84.90
48579;DHT22;34357;51.948;6.132;2022-12-29T17:34:32;8.40;85.10
48579;DHT22;34357;51.948;6.132;2022-12-29T17:36:58;8.50;84.90
48579;DHT22;34357;51.948;6.132;2022-12-29T17:39:24;8.40;85.00
48579;DHT22;34357;51.948;6.132;2022-12-29T17:41:50;8.40;85.30
48579;DHT22;34357;51.948;6.132;2022-12-29T17:44:18;8.40;85.00
48579;DHT22;34357;51.948;6.132;2022-12-29T17:46:47;8.40;84.60
48579;DHT22;34357;51.948;6.132;2022-12-29T17:49:15;8.40;84.90
48579;DHT22;34357;51.948;6.132;2022-12-29T17:51:43;8.40;84.40
48579;DHT22;34357;51.948;6.132;2022-12-29T17:54:21;8.30;84.70
48579;DHT22;34357;51.948;6.132;2022-12-29T17:56:47;8.20;84.50
48579;DHT22;34357;51.948;6.132;2022-12-29T17:59:14;8.20;84.60
48579;DHT22;34357;51.948;6.132;2022-12-29T18:01:41;8.20;84.30
48579;DHT22;34357;51.948;6.132;2022-12-29T18:04:12;8.20;84.20
48579;DHT22;34357;51.948;6.132;2022-12-29T18:06:38;8.10;84.30
48579;DHT22;34357;51.948;6.132;2022-12-29T18:09:04;8.10;84.30